sensor_id;sensor_type;location;lat;lon;timestamp;temperature;humidity
26049;DHT22;13822;51.568;5.086;2022-07-18T04:51:08;17.80;99.90
26049;DHT22;13822;51.568;5.086;2022-07-18T04:56:09;17.80;99.90
26049;DHT22;13822;51.568;5.086;2022-07-18T05:01:11;17.80;99.90
26049;DHT22;13822;51.568;5.086;2022-07-18T05:06:13;17.80;99.90
26049;DHT22;13822;51.568;5.086;2022-07-18T05:11:15;17.80;99.90
26049;DHT22;13822;51.568;5.086;2022-07-18T05:16:17;17.80;99.90
26049;DHT22;13822;51.568;5.086;2022-07-18T05:21:19;17.90;99.90
26049;DHT22;13822;51.568;5.086;2022-07-18T05:26:21;17.90;99.90
26049;DHT22;13822;51.568;5.086;2022-07-18T05:31:23;18.00;99.90
26049;DHT22;13822;51.568;5.086;2022-07-18T05:36:25;18.00;99.90
26049;DHT22;13822;51.568;5.086;2022-07-18T05:41:26;18.10;99.90
26049;DHT22;13822;51.568;5.086;2022-07-18T05:46:28;18.10;99.90
26049;DHT22;13822;51.568;5.086;2022-07-18T05:51:31;18.20;99.90
26049;DHT22;13822;51.568;5.086;2022-07-18T05:56:33;18.30;99.90
26049;DHT22;13822;51.568;5.086;2022-07-18T06:01:35;18.40;99.90
26049;DHT22;13822;51.568;5.086;2022-07-18T06:06:37;18.50;99.90
26049;DHT22;13822;51.568;5.086;2022-07-18T06:11:39;18.60;99.90
26049;DHT22;13822;51.568;5.086;2022-07-18T06:16:41;18.70;99.90
26049;DHT22;13822;51.568;5.086;2022-07-18T06:21:43;18.90;99.90
26049;DHT22;13822;51.568;5.086;2022-07-18T06:26:45;19.00;99.90
26049;DHT22;13822;51.568;5.086;2022-07-18T06:31:47;19.20;99.90
26049;DHT22;13822;51.568;5.086;2022-07-18T06:36:49;19.40;99.90
26049;DHT22;13822;51.568;5.086;2022-07-18T06:41:51;19.50;99.90
26049;DHT22;13822;51.568;5.086;2022-07-18T06:46:54;19.70;99.90
26049;DHT22;13822;51.568;5.086;2022-07-18T06:51:56;19.90;99.90
26049;DHT22;13822;51.568;5.086;2022-07-18T06:57:04;20.10;99.90
26049;DHT22;13822;51.568;5.086;2022-07-18T07:02:09;20.30;99.90
26049;DHT22;13822;51.568;5.086;2022-07-18T07:07:11;20.50;99.90
26049;DHT22;13822;51.568;5.086;2022-07-18T07:12:13;20.70;99.90
26049;DHT22;13822;51.568;5.086;2022-07-18T07:17:14;20.90;93.90
26049;DHT22;13822;51.568;5.086;2022-07-18T07:22:16;21.10;93.10
26049;DHT22;13822;51.568;5.086;2022-07-18T07:27:18;21.30;91.80
26049;DHT22;13822;51.568;5.086;2022-07-18T07:32:20;21.60;83.00
26049;DHT22;13822;51.568;5.086;2022-07-18T07:37:22;21.90;86.00
26049;DHT22;13822;51.568;5.086;2022-07-18T07:42:24;22.10;81.70
26049;DHT22;13822;51.568;5.086;2022-07-18T07:47:26;22.30;75.60
26049;DHT22;13822;51.568;5.086;2022-07-18T07:52:30;22.60;67.40
26049;DHT22;13822;51.568;5.086;2022-07-18T07:57:32;22.80;85.00
26049;DHT22;13822;51.568;5.086;2022-07-18T08:02:36;22.90;79.90
26049;DHT22;13822;51.568;5.086;2022-07-18T08:07:38;23.20;70.50
26049;DHT22;13822;51.568;5.086;2022-07-18T08:12:40;23.40;56.20
26049;DHT22;13822;51.568;5.086;2022-07-18T08:17:43;23.60;59.40
26049;DHT22;13822;51.568;5.086;2022-07-18T08:22:55;23.90;65.80
26049;DHT22;13822;51.568;5.086;2022-07-18T08:27:58;24.10;63.40
26049;DHT22;13822;51.568;5.086;2022-07-18T08:33:01;24.30;51.50
26049;DHT22;13822;51.568;5.086;2022-07-18T08:38:03;24.60;54.30
26049;DHT22;13822;51.568;5.086;2022-07-18T08:43:05;24.90;50.40
26049;DHT22;13822;51.568;5.086;2022-07-18T08:48:23;25.00;45.50
26049;DHT22;13822;51.568;5.086;2022-07-18T08:53:25;25.20;50.50
26049;DHT22;13822;51.568;5.086;2022-07-18T08:58:27;25.40;53.80
26049;DHT22;13822;51.568;5.086;2022-07-18T09:03:47;25.50;56.40
26049;DHT22;13822;51.568;5.086;2022-07-18T09:09:09;25.70;58.70
26049;DHT22;13822;51.568;5.086;2022-07-18T09:19:34;26.10;48.90
26049;DHT22;13822;51.568;5.086;2022-07-18T09:35:19;26.90;49.00
26049;DHT22;13822;51.568;5.086;2022-07-18T09:40:32;27.10;38.50
26049;DHT22;13822;51.568;5.086;2022-07-18T09:45:39;27.30;47.30
26049;DHT22;13822;51.568;5.086;2022-07-18T09:50:42;27.50;39.40
26049;DHT22;13822;51.568;5.086;2022-07-18T09:55:52;27.70;46.70
26049;DHT22;13822;51.568;5.086;2022-07-18T10:00:57;27.90;45.70
26049;DHT22;13822;51.568;5.086;2022-07-18T10:06:00;28.10;42.50
26049;DHT22;13822;51.568;5.086;2022-07-18T10:11:03;28.20;44.30
26049;DHT22;13822;51.568;5.086;2022-07-18T10:16:07;28.40;42.90
26049;DHT22;13822;51.568;5.086;2022-07-18T10:21:10;28.50;39.00
26049;DHT22;13822;51.568;5.086;2022-07-18T10:31:19;29.20;37.10
26049;DHT22;13822;51.568;5.086;2022-07-18T10:36:21;29.60;32.90
26049;DHT22;13822;51.568;5.086;2022-07-18T10:41:24;30.00;38.90
26049;DHT22;13822;51.568;5.086;2022-07-18T10:46:29;30.30;33.00
26049;DHT22;13822;51.568;5.086;2022-07-18T10:52:06;30.50;38.40
26049;DHT22;13822;51.568;5.086;2022-07-18T10:57:09;30.70;29.20
26049;DHT22;13822;51.568;5.086;2022-07-18T11:02:12;31.10;29.30
26049;DHT22;13822;51.568;5.086;2022-07-18T11:07:15;31.40;32.10
26049;DHT22;13822;51.568;5.086;2022-07-18T11:23:12;32.70;29.20
26049;DHT22;13822;51.568;5.086;2022-07-18T11:28:16;33.20;33.90
26049;DHT22;13822;51.568;5.086;2022-07-18T11:33:24;33.50;29.70
26049;DHT22;13822;51.568;5.086;2022-07-18T11:38:27;33.70;26.00
26049;DHT22;13822;51.568;5.086;2022-07-18T11:43:30;33.90;26.20
26049;DHT22;13822;51.568;5.086;2022-07-18T11:48:33;34.20;27.30
26049;DHT22;13822;51.568;5.086;2022-07-18T11:53:36;34.40;28.30
26049;DHT22;13822;51.568;5.086;2022-07-18T11:58:38;34.50;24.50
26049;DHT22;13822;51.568;5.086;2022-07-18T12:03:42;34.70;26.10
26049;DHT22;13822;51.568;5.086;2022-07-18T12:08:46;35.00;25.20
26049;DHT22;13822;51.568;5.086;2022-07-18T12:13:57;35.20;25.90
26049;DHT22;13822;51.568;5.086;2022-07-18T12:19:17;35.40;25.20
26049;DHT22;13822;51.568;5.086;2022-07-18T12:24:41;35.70;24.60
26049;DHT22;13822;51.568;5.086;2022-07-18T12:30:09;35.90;25.40
26049;DHT22;13822;51.568;5.086;2022-07-18T12:35:30;36.10;25.50
26049;DHT22;13822;51.568;5.086;2022-07-18T12:46:08;36.30;24.40
26049;DHT22;13822;51.568;5.086;2022-07-18T12:51:11;36.50;24.00
26049;DHT22;13822;51.568;5.086;2022-07-18T12:56:13;36.60;22.60
26049;DHT22;13822;51.568;5.086;2022-07-18T13:01:15;36.80;25.80
26049;DHT22;13822;51.568;5.086;2022-07-18T13:06:17;36.90;19.40
26049;DHT22;13822;51.568;5.086;2022-07-18T13:11:21;37.10;23.60
26049;DHT22;13822;51.568;5.086;2022-07-18T13:16:30;37.30;18.70
26049;DHT22;13822;51.568;5.086;2022-07-18T13:21:32;37.40;20.40
26049;DHT22;13822;51.568;5.086;2022-07-18T13:26:34;37.50;21.90
26049;DHT22;13822;51.568;5.086;2022-07-18T13:31:36;37.70;22.20
26049;DHT22;13822;51.568;5.086;2022-07-18T13:36:38;37.80;21.30
26049;DHT22;13822;51.568;5.086;2022-07-18T13:41:40;37.70;19.50
26049;DHT22;13822;51.568;5.086;2022-07-18T13:46:42;37.90;20.00
26049;DHT22;13822;51.568;5.086;2022-07-18T13:51:44;37.90;19.60
26049;DHT22;13822;51.568;5.086;2022-07-18T13:56:46;37.90;21.70
26049;DHT22;13822;51.568;5.086;2022-07-18T14:01:48;37.90;17.40
26049;DHT22;13822;51.568;5.086;2022-07-18T14:06:51;38.00;21.50
26049;DHT22;13822;51.568;5.086;2022-07-18T14:11:53;38.00;19.80
26049;DHT22;13822;51.568;5.086;2022-07-18T14:16:55;38.00;21.10
26049;DHT22;13822;51.568;5.086;2022-07-18T14:21:57;38.10;18.00
26049;DHT22;13822;51.568;5.086;2022-07-18T14:26:59;38.30;18.50
26049;DHT22;13822;51.568;5.086;2022-07-18T14:32:00;38.40;21.50
26049;DHT22;13822;51.568;5.086;2022-07-18T14:37:03;38.40;18.40
26049;DHT22;13822;51.568;5.086;2022-07-18T14:42:06;38.50;21.90
26049;DHT22;13822;51.568;5.086;2022-07-18T14:47:09;38.40;18.20
26049;DHT22;13822;51.568;5.086;2022-07-18T14:52:11;38.30;19.30
26049;DHT22;13822;51.568;5.086;2022-07-18T14:57:13;38.40;18.20
26049;DHT22;13822;51.568;5.086;2022-07-18T15:02:18;38.40;21.00
26049;DHT22;13822;51.568;5.086;2022-07-18T15:07:20;38.10;18.90
26049;DHT22;13822;51.568;5.086;2022-07-18T15:12:22;38.00;18.10
26049;DHT22;13822;51.568;5.086;2022-07-18T15:17:24;38.00;18.60
26049;DHT22;13822;51.568;5.086;2022-07-18T15:22:27;38.00;18.50
26049;DHT22;13822;51.568;5.086;2022-07-18T15:27:29;37.90;19.50
26049;DHT22;13822;51.568;5.086;2022-07-18T15:32:30;37.80;18.30
26049;DHT22;13822;51.568;5.086;2022-07-18T15:37:33;37.80;19.80
26049;DHT22;13822;51.568;5.086;2022-07-18T15:42:34;37.50;18.50
26049;DHT22;13822;51.568;5.086;2022-07-18T15:47:36;37.50;20.20
26049;DHT22;13822;51.568;5.086;2022-07-18T15:52:38;37.40;18.60
26049;DHT22;13822;51.568;5.086;2022-07-18T15:57:40;37.30;20.90
26049;DHT22;13822;51.568;5.086;2022-07-18T16:02:42;37.30;20.20
26049;DHT22;13822;51.568;5.086;2022-07-18T16:07:44;37.20;19.20
26049;DHT22;13822;51.568;5.086;2022-07-18T16:12:46;37.10;19.00
26049;DHT22;13822;51.568;5.086;2022-07-18T16:17:48;37.10;21.50
26049;DHT22;13822;51.568;5.086;2022-07-18T16:22:58;36.90;20.00
26049;DHT22;13822;51.568;5.086;2022-07-18T16:28:00;36.90;19.30
26049;DHT22;13822;51.568;5.086;2022-07-18T16:33:04;36.80;20.50
26049;DHT22;13822;51.568;5.086;2022-07-18T16:38:06;36.70;19.70
26049;DHT22;13822;51.568;5.086;2022-07-18T16:43:08;36.70;19.80
26049;DHT22;13822;51.568;5.086;2022-07-18T16:48:10;36.60;20.30
26049;DHT22;13822;51.568;5.086;2022-07-18T16:53:12;36.60;19.60
26049;DHT22;13822;51.568;5.086;2022-07-18T16:58:14;36.50;20.80
26049;DHT22;13822;51.568;5.086;2022-07-18T17:03:16;36.50;19.70
26049;DHT22;13822;51.568;5.086;2022-07-18T17:08:19;36.40;19.70
26049;DHT22;13822;51.568;5.086;2022-07-18T17:13:22;36.30;19.10
26049;DHT22;13822;51.568;5.086;2022-07-18T17:18:24;36.30;20.20
26049;DHT22;13822;51.568;5.086;2022-07-18T17:23:27;36.20;20.40
26049;DHT22;13822;51.568;5.086;2022-07-18T17:28:29;36.10;19.70
26049;DHT22;13822;51.568;5.086;2022-07-18T17:33:31;35.90;19.50
26049;DHT22;13822;51.568;5.086;2022-07-18T17:38:34;35.80;19.90
26049;DHT22;13822;51.568;5.086;2022-07-18T17:43:37;35.70;20.00
26049;DHT22;13822;51.568;5.086;2022-07-18T17:48:42;35.50;19.50
26049;DHT22;13822;51.568;5.086;2022-07-18T17:53:44;35.40;20.20
26049;DHT22;13822;51.568;5.086;2022-07-18T17:58:52;35.20;21.20
26049;DHT22;13822;51.568;5.086;2022-07-18T18:03:54;35.00;21.10
26049;DHT22;13822;51.568;5.086;2022-07-18T18:08:57;34.90;20.90
26049;DHT22;13822;51.568;5.086;2022-07-18T18:13:59;34.70;21.50
26049;DHT22;13822;51.568;5.086;2022-07-18T18:19:02;34.60;21.90
26049;DHT22;13822;51.568;5.086;2022-07-18T18:24:04;34.60;22.20
26049;DHT22;13822;51.568;5.086;2022-07-18T18:29:06;34.40;21.50
26049;DHT22;13822;51.568;5.086;2022-07-18T18:34:09;34.20;21.80
26049;DHT22;13822;51.568;5.086;2022-07-18T18:39:11;34.10;22.40
26049;DHT22;13822;51.568;5.086;2022-07-18T18:44:13;33.90;22.50
26049;DHT22;13822;51.568;5.086;2022-07-18T18:49:17;33.70;23.10
26049;DHT22;13822;51.568;5.086;2022-07-18T18:54:20;33.60;23.40
26049;DHT22;13822;51.568;5.086;2022-07-18T18:59:22;33.20;24.50
26049;DHT22;13822;51.568;5.086;2022-07-18T19:04:24;33.00;25.00
26049;DHT22;13822;51.568;5.086;2022-07-18T19:09:26;32.70;25.00
26049;DHT22;13822;51.568;5.086;2022-07-18T19:14:28;32.40;26.00
26049;DHT22;13822;51.568;5.086;2022-07-18T19:19:30;32.10;26.30
26049;DHT22;13822;51.568;5.086;2022-07-18T19:24:32;31.80;27.10
26049;DHT22;13822;51.568;5.086;2022-07-18T19:29:34;31.50;27.70
26049;DHT22;13822;51.568;5.086;2022-07-18T19:34:36;31.30;28.40
26049;DHT22;13822;51.568;5.086;2022-07-18T19:39:38;31.20;28.90
26049;DHT22;13822;51.568;5.086;2022-07-18T21:48:54;27.90;45.00
26049;DHT22;13822;51.568;5.086;2022-07-18T21:54:48;27.80;56.30
26049;DHT22;13822;51.568;5.086;2022-07-18T22:00:14;27.70;57.20
26049;DHT22;13822;51.568;5.086;2022-07-18T22:05:55;27.50;60.30
26049;DHT22;13822;51.568;5.086;2022-07-18T22:11:37;27.40;60.90
26049;DHT22;13822;51.568;5.086;2022-07-18T22:18:19;27.20;63.30
26049;DHT22;13822;51.568;5.086;2022-07-18T22:30:14;27.10;60.70
26049;DHT22;13822;51.568;5.086;2022-07-18T22:36:12;27.00;63.70
26049;DHT22;13822;51.568;5.086;2022-07-18T22:41:40;26.90;48.90
26049;DHT22;13822;51.568;5.086;2022-07-18T22:47:26;26.80;65.10
26049;DHT22;13822;51.568;5.086;2022-07-18T22:59:32;26.70;72.50
26049;DHT22;13822;51.568;5.086;2022-07-18T23:05:24;26.50;75.00
26049;DHT22;13822;51.568;5.086;2022-07-18T23:11:39;26.40;73.20
26049;DHT22;13822;51.568;5.086;2022-07-18T23:23:40;26.20;69.30
26049;DHT22;13822;51.568;5.086;2022-07-18T23:29:12;26.10;77.00
26049;DHT22;13822;51.568;5.086;2022-07-18T23:34:57;26.00;73.80
26049;DHT22;13822;51.568;5.086;2022-07-18T23:40:45;26.00;68.70
26049;DHT22;13822;51.568;5.086;2022-07-18T23:46:54;25.90;55.70
